createdAt,value
2019-03-10T00:00:05.564Z,11.34
2019-03-10T00:01:06.035Z,11.37
2019-03-10T00:02:06.513Z,11.27
2019-03-10T00:03:07.609Z,11.27
2019-03-10T00:04:08.072Z,11.22
2019-03-10T00:05:07.826Z,11.16
2019-03-10T00:06:08.030Z,11.15
2019-03-10T00:07:09.334Z,11.08
2019-03-10T00:08:10.084Z,11.07
2019-03-10T00:09:11.112Z,11.01
2019-03-10T00:10:11.865Z,11.07
2019-03-10T00:11:12.896Z,11.02
2019-03-10T00:12:14.205Z,10.98
2019-03-10T00:13:14.957Z,10.95
2019-03-10T00:14:15.637Z,11.01
2019-03-10T00:15:16.388Z,11.04
2019-03-10T00:16:16.877Z,11.07
2019-03-10T00:17:17.352Z,11.02
2019-03-10T00:18:17.665Z,11.08
2019-03-10T00:19:18.430Z,11.15
2019-03-10T00:20:18.952Z,11.12
2019-03-10T00:21:19.715Z,11.12
2019-03-10T00:22:20.189Z,11.16
2019-03-10T00:23:20.939Z,11.16
2019-03-10T00:24:21.906Z,11.19
2019-03-10T00:25:22.679Z,11.18
2019-03-10T00:26:23.429Z,11.22
2019-03-10T00:27:23.669Z,11.2
2019-03-10T00:28:24.703Z,11.15
2019-03-10T00:29:25.459Z,11.13
2019-03-10T00:30:26.488Z,11.12
2019-03-10T00:31:26.712Z,11.08
2019-03-10T00:32:27.464Z,11.15
2019-03-10T00:33:27.950Z,11.18
2019-03-10T00:34:28.873Z,11.12
2019-03-10T00:35:29.642Z,11.22
2019-03-10T00:36:30.115Z,11.18
2019-03-10T00:37:30.868Z,11.18
2019-03-10T00:38:32.178Z,11.3
2019-03-10T00:39:32.374Z,11.3
2019-03-10T00:40:32.906Z,11.22
2019-03-10T00:41:33.102Z,11.08
2019-03-10T00:42:33.570Z,11.18
2019-03-10T00:43:34.317Z,11.2
2019-03-10T00:44:34.573Z,11.23
2019-03-10T00:45:34.775Z,11.22
2019-03-10T00:46:35.526Z,11.18
2019-03-10T00:47:36.017Z,11.22
2019-03-10T00:48:36.207Z,11.34
2019-03-10T00:49:36.684Z,11.35
2019-03-10T00:50:37.491Z,11.34
2019-03-10T00:51:37.525Z,11.35
2019-03-10T00:52:38.273Z,11.33
2019-03-10T00:53:38.468Z,11.31
2019-03-10T00:54:38.946Z,11.34
2019-03-10T00:55:39.264Z,11.3
2019-03-10T00:56:40.012Z,11.31
2019-03-10T00:57:40.762Z,11.38
2019-03-10T00:58:41.355Z,11.35
2019-03-10T00:59:41.831Z,11.25
2019-03-10T01:00:42.584Z,11.33
2019-03-10T01:01:43.057Z,11.25
2019-03-10T01:02:43.541Z,11.23
2019-03-10T01:03:44.294Z,11.22
2019-03-10T01:04:45.507Z,11.25
2019-03-10T01:05:46.262Z,11.26
2019-03-10T01:06:47.036Z,11.19
2019-03-10T01:07:48.065Z,11.23
2019-03-10T01:08:48.533Z,11.25
2019-03-10T01:09:49.840Z,11.23
2019-03-10T01:10:50.876Z,11.22
2019-03-10T01:11:51.363Z,11.2
2019-03-10T01:12:52.407Z,11.2
2019-03-10T01:13:53.718Z,11.13
2019-03-10T01:14:54.658Z,11.12
2019-03-10T01:15:54.847Z,11.16
2019-03-10T01:16:55.876Z,11.22
2019-03-10T01:17:56.360Z,11.16
2019-03-10T01:18:57.121Z,11.16
2019-03-10T01:19:57.868Z,11.19
2019-03-10T01:20:58.064Z,11.25
2019-03-10T01:21:58.813Z,11.22
2019-03-10T01:22:59.567Z,11.19
2019-03-10T01:24:00.052Z,11.1
2019-03-10T01:25:01.079Z,11.1
2019-03-10T01:26:01.602Z,11.18
2019-03-10T01:27:01.802Z,11.16
2019-03-10T01:28:02.559Z,11.16
2019-03-10T01:29:03.698Z,11.15
2019-03-10T01:30:05.003Z,11.15
2019-03-10T01:31:05.514Z,11.15
2019-03-10T01:32:05.990Z,11.15
2019-03-10T01:33:06.741Z,11.04
2019-03-10T01:34:07.773Z,11.13
2019-03-10T01:35:08.314Z,11.02
2019-03-10T01:36:08.784Z,11.02
2019-03-10T01:37:09.258Z,11.04
2019-03-10T01:38:10.017Z,11.07
2019-03-10T01:39:10.210Z,11.1
2019-03-10T01:40:10.963Z,11.02
2019-03-10T01:41:11.178Z,11.08
2019-03-10T01:42:11.433Z,10.98
2019-03-10T01:43:12.230Z,11.04
2019-03-10T01:44:13.256Z,11.04
2019-03-10T01:45:12.887Z,11.08
2019-03-10T01:46:13.927Z,11.08
2019-03-10T01:47:14.413Z,11.08
2019-03-10T01:48:14.611Z,11.07
2019-03-10T01:49:15.653Z,11.15
2019-03-10T01:50:16.133Z,11.15
2019-03-10T01:51:17.209Z,11.1
2019-03-10T01:52:17.976Z,11.1
2019-03-10T01:53:28.517Z,11.19
2019-03-10T01:54:29.449Z,11.2
2019-03-10T01:55:29.650Z,11.26
2019-03-10T01:56:30.471Z,11.26
2019-03-10T01:57:30.667Z,11.31
2019-03-10T01:58:31.145Z,11.2
2019-03-10T01:59:32.453Z,11.22
2019-03-10T02:00:32.932Z,11.25
2019-03-10T02:01:33.964Z,11.2
2019-03-10T02:02:34.218Z,11.3
2019-03-10T02:03:34.698Z,11.25
2019-03-10T02:04:35.665Z,11.23
2019-03-10T02:05:35.858Z,11.22
2019-03-10T02:06:36.062Z,11.34
2019-03-10T02:07:36.842Z,11.35
2019-03-10T02:08:37.596Z,11.34
2019-03-10T02:09:38.348Z,11.33
2019-03-10T02:10:39.148Z,11.41
2019-03-10T02:11:39.624Z,11.41
2019-03-10T02:12:40.102Z,11.51
2019-03-10T02:13:41.143Z,11.6
2019-03-10T02:14:42.058Z,11.56
2019-03-10T02:15:42.256Z,11.62
2019-03-10T02:16:43.013Z,11.6
2019-03-10T02:17:44.038Z,11.78
2019-03-10T02:18:44.800Z,11.78
2019-03-10T02:19:45.833Z,11.71
2019-03-10T02:20:46.758Z,11.78
2019-03-10T02:21:47.520Z,11.71
2019-03-10T02:22:48.320Z,11.67
2019-03-10T02:23:49.356Z,11.68
2019-03-10T02:24:49.809Z,11.67
2019-03-10T02:25:50.847Z,11.73
2019-03-10T02:26:50.920Z,11.65
2019-03-10T02:27:51.400Z,11.7
2019-03-10T02:28:52.169Z,11.68
2019-03-10T02:29:53.200Z,11.59
2019-03-10T02:30:53.960Z,11.68
2019-03-10T02:31:55.284Z,11.44
2019-03-10T02:32:55.898Z,11.41
2019-03-10T02:33:56.217Z,11.4
2019-03-10T02:34:57.139Z,11.34
2019-03-10T02:35:58.763Z,11.31
2019-03-10T02:36:59.092Z,11.25
2019-03-10T02:38:00.428Z,11.22
2019-03-10T02:39:01.347Z,11.26
2019-03-10T02:40:01.365Z,11.31
2019-03-10T02:41:02.184Z,11.33
2019-03-10T02:42:02.857Z,11.35
2019-03-10T02:43:04.287Z,11.4
2019-03-10T02:44:04.987Z,11.33
2019-03-10T02:45:05.450Z,11.34
2019-03-10T02:46:05.302Z,11.31
2019-03-10T02:47:05.916Z,11.37
2019-03-10T02:48:07.315Z,11.35
2019-03-10T02:49:07.651Z,11.37
2019-03-10T02:50:08.985Z,11.27
2019-03-10T02:51:09.768Z,11.13
2019-03-10T02:52:10.567Z,11.15
2019-03-10T02:53:12.180Z,11.04
2019-03-10T02:54:12.275Z,11.07
2019-03-10T02:55:13.625Z,10.98
2019-03-10T02:56:13.983Z,10.86
2019-03-10T02:57:14.630Z,10.77
2019-03-10T02:58:15.776Z,10.58
2019-03-10T02:59:16.386Z,10.61
2019-03-10T03:00:17.204Z,10.67
2019-03-10T03:01:17.894Z,10.61
2019-03-10T03:02:18.675Z,10.48
2019-03-10T03:03:19.724Z,10.53
2019-03-10T03:04:21.124Z,10.36
2019-03-10T03:05:21.763Z,10.39
2019-03-10T03:06:22.828Z,10.39
2019-03-10T03:07:23.858Z,10.31
2019-03-10T03:08:24.187Z,10.28
2019-03-10T03:09:25.058Z,10.27
2019-03-10T03:10:25.780Z,10.13
2019-03-10T03:11:26.407Z,10.02
2019-03-10T03:12:26.480Z,9.99
2019-03-10T03:13:28.021Z,9.97
2019-03-10T03:14:28.223Z,9.84
2019-03-10T03:15:29.015Z,9.87
2019-03-10T03:16:29.892Z,9.84
2019-03-10T03:17:30.249Z,9.73
2019-03-10T03:18:31.439Z,9.8
2019-03-10T03:19:32.352Z,9.74
2019-03-10T03:20:33.668Z,9.74
2019-03-10T03:21:45.485Z,9.74
2019-03-10T03:22:46.052Z,9.73
2019-03-10T03:23:46.970Z,9.9
2019-03-10T03:24:46.820Z,9.81
2019-03-10T03:25:47.924Z,9.85
2019-03-10T03:26:48.683Z,9.82
2019-03-10T03:27:49.431Z,9.84
2019-03-10T03:28:50.022Z,9.84
2019-03-10T03:29:50.608Z,9.82
2019-03-10T03:30:51.950Z,9.8
2019-03-10T03:31:52.899Z,9.87
2019-03-10T03:32:53.688Z,9.87
2019-03-10T03:33:54.393Z,9.82
2019-03-10T03:34:55.029Z,9.84
2019-03-10T03:35:55.612Z,9.87
2019-03-10T03:36:55.948Z,9.84
2019-03-10T03:37:56.540Z,9.87
2019-03-10T03:38:57.566Z,9.87
2019-03-10T03:39:58.451Z,9.85
2019-03-10T03:40:59.446Z,9.82
2019-03-10T03:41:59.251Z,9.85
2019-03-10T03:43:00.520Z,9.84
2019-03-10T03:44:00.871Z,9.76
2019-03-10T03:45:02.088Z,9.84
2019-03-10T03:46:02.443Z,9.84
2019-03-10T03:47:03.148Z,9.82
2019-03-10T03:48:03.514Z,9.91
2019-03-10T03:49:04.564Z,9.84
2019-03-10T03:50:05.603Z,9.84
2019-03-10T03:51:06.785Z,9.85
2019-03-10T03:52:07.139Z,9.73
2019-03-10T03:53:07.341Z,9.73
2019-03-10T03:54:08.658Z,9.85
2019-03-10T03:55:08.969Z,9.84
2019-03-10T03:56:09.045Z,9.85
2019-03-10T03:57:09.820Z,9.74
2019-03-10T03:58:10.435Z,9.74
2019-03-10T03:59:11.765Z,9.74
2019-03-10T04:00:13.421Z,9.8
2019-03-10T04:01:14.348Z,9.73
2019-03-10T04:02:14.986Z,9.81
2019-03-10T04:03:15.254Z,9.77
2019-03-10T04:04:16.407Z,9.8
2019-03-10T04:05:17.454Z,9.81
2019-03-10T04:06:18.041Z,9.9
2019-03-10T04:07:19.205Z,9.87
2019-03-10T04:08:19.907Z,9.82
2019-03-10T04:09:20.577Z,9.84
2019-03-10T04:10:21.170Z,9.92
2019-03-10T04:11:21.498Z,9.95
2019-03-10T04:12:23.408Z,9.94
2019-03-10T04:13:23.829Z,9.91
2019-03-10T04:14:24.420Z,9.88
2019-03-10T04:15:25.682Z,9.87
2019-03-10T04:16:26.551Z,9.94
2019-03-10T04:17:27.361Z,9.87
2019-03-10T04:18:28.027Z,9.95
2019-03-10T04:19:28.888Z,9.85
2019-03-10T04:20:30.498Z,9.87
2019-03-10T04:21:30.988Z,9.87
2019-03-10T04:22:32.314Z,9.84
2019-03-10T04:23:33.380Z,9.84
2019-03-10T04:24:33.991Z,9.76
2019-03-10T04:25:34.024Z,9.85
2019-03-10T04:26:35.213Z,9.76
2019-03-10T04:27:35.800Z,9.87
2019-03-10T04:28:35.854Z,9.85
2019-03-10T04:29:36.441Z,9.74
2019-03-10T04:30:37.586Z,9.73
2019-03-10T04:31:38.349Z,9.72
2019-03-10T04:32:38.971Z,9.72
2019-03-10T04:33:39.771Z,9.62
2019-03-10T04:34:40.347Z,9.73
2019-03-10T04:35:41.403Z,9.69
2019-03-10T04:36:41.909Z,9.76
2019-03-10T04:37:42.951Z,9.72
2019-03-10T04:38:43.703Z,9.7
2019-03-10T04:39:44.735Z,9.73
2019-03-10T04:40:45.208Z,9.73
2019-03-10T04:41:45.686Z,9.72
2019-03-10T04:42:46.443Z,9.74
2019-03-10T04:43:47.092Z,9.81
2019-03-10T04:44:48.144Z,9.88
2019-03-10T04:45:48.896Z,9.84
2019-03-10T04:46:49.094Z,9.82
2019-03-10T04:47:50.125Z,9.88
2019-03-10T04:48:50.902Z,9.87
2019-03-10T04:49:50.651Z,9.82
2019-03-10T04:50:51.687Z,9.88
2019-03-10T04:51:52.176Z,9.9
2019-03-10T04:52:52.375Z,9.72
2019-03-10T04:53:53.217Z,9.77
2019-03-10T04:54:53.687Z,9.82
2019-03-10T04:55:54.435Z,9.73
2019-03-10T04:56:54.906Z,9.87
2019-03-10T04:57:55.654Z,9.73
2019-03-10T04:58:56.148Z,9.76
2019-03-10T04:59:56.346Z,9.72
2019-03-10T05:00:56.933Z,9.66
2019-03-10T05:01:56.996Z,9.62
2019-03-10T05:02:57.472Z,9.74
2019-03-10T05:03:58.474Z,9.73
2019-03-10T05:04:59.227Z,9.67
2019-03-10T05:06:00.174Z,9.73
2019-03-10T05:07:00.371Z,9.62
2019-03-10T05:08:00.849Z,9.7
2019-03-10T05:09:01.932Z,9.62
2019-03-10T05:10:02.427Z,9.66
2019-03-10T05:11:03.767Z,9.62
2019-03-10T05:12:05.357Z,9.66
2019-03-10T05:13:04.830Z,9.64
2019-03-10T05:14:05.142Z,9.63
2019-03-10T05:15:05.730Z,9.69
2019-03-10T05:16:06.765Z,9.72
2019-03-10T05:17:07.796Z,9.73
2019-03-10T05:18:08.301Z,9.66
2019-03-10T05:19:09.325Z,9.59
2019-03-10T05:20:10.072Z,9.64
2019-03-10T05:21:10.381Z,9.67
2019-03-10T05:22:10.853Z,9.59
2019-03-10T05:23:11.340Z,9.64
2019-03-10T05:24:12.589Z,9.66
2019-03-10T05:25:12.622Z,9.62
2019-03-10T05:26:13.692Z,9.74
2019-03-10T05:27:14.722Z,9.64
2019-03-10T05:28:15.476Z,9.59
2019-03-10T05:29:15.949Z,9.66
2019-03-10T05:30:16.743Z,9.55
2019-03-10T05:31:17.789Z,9.64
2019-03-10T05:32:18.270Z,9.64
2019-03-10T05:33:18.744Z,9.62
2019-03-10T05:34:19.236Z,9.59
2019-03-10T05:35:19.443Z,9.59
2019-03-10T05:36:19.639Z,9.55
2019-03-10T05:37:20.391Z,9.58
2019-03-10T05:38:21.139Z,9.58
2019-03-10T05:39:21.334Z,9.66
2019-03-10T05:40:22.088Z,9.67
2019-03-10T05:41:22.891Z,9.66
2019-03-10T05:42:22.642Z,9.66
2019-03-10T05:43:23.950Z,9.62
2019-03-10T05:44:24.645Z,9.66
2019-03-10T05:45:26.295Z,9.63
2019-03-10T05:46:26.881Z,9.63
2019-03-10T05:47:27.189Z,9.73
2019-03-10T05:48:27.670Z,9.74
2019-03-10T05:49:27.869Z,9.77
2019-03-10T05:50:29.478Z,9.74
2019-03-10T05:51:30.241Z,9.7
2019-03-10T05:52:31.056Z,9.74
2019-03-10T05:53:31.253Z,9.72
2019-03-10T05:54:31.736Z,9.59
2019-03-10T05:55:32.213Z,9.73
2019-03-10T05:56:33.248Z,9.77
2019-03-10T05:57:34.002Z,9.73
2019-03-10T05:58:36.922Z,9.73
2019-03-10T05:59:37.240Z,9.77
2019-03-10T06:00:44.771Z,9.64
2019-03-10T06:00:48.408Z,9.69
2019-03-10T06:01:49.682Z,9.64
2019-03-10T06:02:50.446Z,9.62
2019-03-10T06:03:50.764Z,9.63
2019-03-10T06:04:51.791Z,9.63
2019-03-10T06:05:52.262Z,9.66
2019-03-10T06:06:52.457Z,9.58
2019-03-10T06:07:53.210Z,9.47
2019-03-10T06:08:53.409Z,9.48
2019-03-10T06:09:54.439Z,9.49
2019-03-10T06:10:54.912Z,9.54
2019-03-10T06:11:55.271Z,9.54
2019-03-10T06:12:56.306Z,9.51
2019-03-10T06:13:56.504Z,9.54
2019-03-10T06:14:57.821Z,9.55
2019-03-10T06:15:58.588Z,9.54
2019-03-10T06:16:59.064Z,9.52
2019-03-10T06:17:59.557Z,9.51
2019-03-10T06:19:00.604Z,9.55
2019-03-10T06:20:01.390Z,9.58
2019-03-10T06:21:01.742Z,9.49
2019-03-10T06:22:02.290Z,9.37
2019-03-10T06:23:02.768Z,9.45
2019-03-10T06:24:03.808Z,9.4
2019-03-10T06:25:04.413Z,9.34
2019-03-10T06:26:05.190Z,9.26
2019-03-10T06:27:04.890Z,9.22
2019-03-10T06:28:05.365Z,9.27
2019-03-10T06:29:06.967Z,9.21
2019-03-10T06:30:07.443Z,9.29
2019-03-10T06:31:08.209Z,9.34
2019-03-10T06:32:08.158Z,9.34
2019-03-10T06:33:09.192Z,9.39
2019-03-10T06:34:09.715Z,9.4
2019-03-10T06:35:10.018Z,9.39
2019-03-10T06:36:10.770Z,9.3
2019-03-10T06:37:11.533Z,9.26
2019-03-10T06:38:12.291Z,9.29
2019-03-10T06:39:13.323Z,9.3
2019-03-10T06:40:13.080Z,9.3
2019-03-10T06:41:14.112Z,9.3
2019-03-10T06:42:14.597Z,9.3
2019-03-10T06:43:15.130Z,9.26
2019-03-10T06:44:15.608Z,9.26
2019-03-10T06:45:16.931Z,9.31
2019-03-10T06:46:17.144Z,9.3
2019-03-10T06:47:17.904Z,9.13
2019-03-10T06:48:18.430Z,9.12
2019-03-10T06:49:19.093Z,9.05
2019-03-10T06:50:19.875Z,9.11
2019-03-10T06:51:20.643Z,9.09
2019-03-10T06:52:21.167Z,9.03
2019-03-10T06:53:21.666Z,9.08
2019-03-10T06:54:22.144Z,9.21
2019-03-10T06:55:22.354Z,9.31
2019-03-10T06:56:22.828Z,9.33
2019-03-10T06:57:23.857Z,9.37
2019-03-10T06:58:24.615Z,9.42
2019-03-10T06:59:24.645Z,9.54
2019-03-10T07:00:25.156Z,9.49
2019-03-10T07:01:25.935Z,9.49
2019-03-10T07:02:26.585Z,9.49
2019-03-10T07:03:27.338Z,9.54
2019-03-10T07:04:28.125Z,9.63
2019-03-10T07:05:28.960Z,9.64
2019-03-10T07:06:29.165Z,9.69
2019-03-10T07:07:29.377Z,9.62
2019-03-10T07:08:29.905Z,9.74
2019-03-10T07:09:30.658Z,9.74
2019-03-10T07:10:31.133Z,9.72
2019-03-10T07:11:31.908Z,9.76
2019-03-10T07:12:32.994Z,9.85
2019-03-10T07:13:34.032Z,9.88
2019-03-10T07:14:34.236Z,9.85
2019-03-10T07:15:34.717Z,9.92
2019-03-10T07:16:35.763Z,9.95
2019-03-10T07:17:36.239Z,9.92
2019-03-10T07:18:37.004Z,9.99
2019-03-10T07:19:37.761Z,10.05
2019-03-10T07:20:38.535Z,9.97
2019-03-10T07:21:39.570Z,10.07
2019-03-10T07:22:40.357Z,9.97
2019-03-10T07:23:41.113Z,10.02
2019-03-10T07:24:41.591Z,10.03
2019-03-10T07:25:42.376Z,10.06
2019-03-10T07:26:43.421Z,10.13
2019-03-10T07:27:44.457Z,10.25
2019-03-10T07:28:45.490Z,10.17
2019-03-10T07:29:45.688Z,10.28
2019-03-10T07:30:46.448Z,10.3
2019-03-10T07:31:47.475Z,10.36
2019-03-10T07:32:48.447Z,10.36
2019-03-10T07:33:49.765Z,10.49
2019-03-10T07:34:49.514Z,10.48
2019-03-10T07:35:50.107Z,10.48
2019-03-10T07:36:50.653Z,10.49
2019-03-10T07:37:51.132Z,10.59
2019-03-10T07:38:51.896Z,10.58
2019-03-10T07:39:51.954Z,10.57
2019-03-10T07:40:52.985Z,10.59
2019-03-10T07:41:53.758Z,10.62
2019-03-10T07:42:54.006Z,10.67
2019-03-10T07:43:55.314Z,10.62
2019-03-10T07:44:55.847Z,10.71
2019-03-10T07:45:56.883Z,10.64
2019-03-10T07:46:57.363Z,10.67
2019-03-10T07:47:57.846Z,10.75
2019-03-10T07:48:59.155Z,10.72
2019-03-10T07:49:59.384Z,10.8
2019-03-10T07:51:00.233Z,10.83
2019-03-10T07:52:01.009Z,10.87
2019-03-10T07:53:01.214Z,10.89
2019-03-10T07:54:02.031Z,10.86
2019-03-10T07:55:02.516Z,10.95
2019-03-10T07:56:03.271Z,10.87
2019-03-10T07:57:04.040Z,10.98
2019-03-10T07:58:04.816Z,10.9
2019-03-10T07:59:05.581Z,10.84
2019-03-10T08:00:06.698Z,10.98
2019-03-10T08:01:07.458Z,10.89
2019-03-10T08:02:07.944Z,10.86
2019-03-10T08:03:08.880Z,10.86
2019-03-10T08:04:09.363Z,10.89
2019-03-10T08:05:10.164Z,10.84
2019-03-10T08:06:11.199Z,10.94
2019-03-10T08:07:12.099Z,10.87
2019-03-10T08:08:12.860Z,10.86
2019-03-10T08:09:13.631Z,10.89
2019-03-10T08:10:13.998Z,10.95
2019-03-10T08:11:14.552Z,11.02
2019-03-10T08:12:15.632Z,11.02
2019-03-10T08:13:16.583Z,11.1
2019-03-10T08:14:17.344Z,11.26
2019-03-10T08:15:18.136Z,11.31
2019-03-10T08:16:18.655Z,11.4
2019-03-10T08:17:19.406Z,11.41
2019-03-10T08:18:19.673Z,11.43
2019-03-10T08:19:20.440Z,11.52
2019-03-10T08:20:21.215Z,11.59
2019-03-10T08:21:21.978Z,11.63
2019-03-10T08:22:22.466Z,11.65
2019-03-10T08:23:23.673Z,11.77
2019-03-10T08:24:24.147Z,11.81
2019-03-10T08:25:24.647Z,11.86
2019-03-10T08:26:25.434Z,11.96
2019-03-10T08:27:26.061Z,11.97
2019-03-10T08:28:26.816Z,12
2019-03-10T08:29:27.583Z,12.12
2019-03-10T08:30:27.623Z,12.14
2019-03-10T08:31:28.664Z,12.18
2019-03-10T08:32:29.588Z,12.18
2019-03-10T08:33:30.217Z,12.14
2019-03-10T08:34:30.422Z,12.29
2019-03-10T08:35:31.464Z,12.3
2019-03-10T08:36:31.508Z,12.39
2019-03-10T08:37:32.265Z,12.53
2019-03-10T08:38:32.743Z,12.65
2019-03-10T08:39:33.513Z,12.81
2019-03-10T08:40:33.997Z,12.9
2019-03-10T08:41:35.038Z,13.26
2019-03-10T08:42:35.250Z,13.57
2019-03-10T08:43:36.200Z,13.71
2019-03-10T08:44:36.960Z,13.89
2019-03-10T08:45:37.439Z,13.98
2019-03-10T08:46:38.195Z,14.03
2019-03-10T08:47:38.671Z,14.07
2019-03-10T08:48:39.167Z,14.11
2019-03-10T08:49:46.996Z,14.13
2019-03-10T08:49:50.011Z,14.15
2019-03-10T08:50:50.263Z,14.22
2019-03-10T08:51:51.025Z,14.23
2019-03-10T08:52:52.650Z,14.28
2019-03-10T08:53:52.825Z,14.33
2019-03-10T08:54:53.411Z,14.41
2019-03-10T08:55:53.900Z,14.26
2019-03-10T08:56:54.382Z,14.37
2019-03-10T08:57:57.565Z,14.26
2019-03-10T08:58:56.046Z,14.37
2019-03-10T08:59:56.817Z,14.3
2019-03-10T09:00:57.738Z,14.43
2019-03-10T09:01:57.945Z,14.31
2019-03-10T09:02:58.718Z,14.23
2019-03-10T09:03:59.235Z,14.23
2019-03-10T09:04:59.907Z,14.12
2019-03-10T09:06:00.004Z,14.07
2019-03-10T09:07:00.307Z,14.01
2019-03-10T09:08:01.400Z,13.87
2019-03-10T09:09:02.433Z,13.89
2019-03-10T09:10:03.513Z,13.78
2019-03-10T09:11:04.007Z,13.7
2019-03-10T09:12:05.046Z,13.6
2019-03-10T09:13:05.267Z,13.62
2019-03-10T09:14:05.748Z,13.6
2019-03-10T09:15:07.364Z,13.55
2019-03-10T09:16:07.701Z,13.55
2019-03-10T09:17:08.188Z,13.52
2019-03-10T09:18:08.506Z,13.39
2019-03-10T09:19:09.274Z,13.37
2019-03-10T09:20:10.591Z,13.3
2019-03-10T09:21:10.355Z,13.26
2019-03-10T09:22:10.875Z,13.28
2019-03-10T09:23:11.913Z,13.21
2019-03-10T09:24:12.675Z,13.37
2019-03-10T09:25:13.430Z,13.21
2019-03-10T09:26:14.002Z,13.33
2019-03-10T09:27:15.046Z,13.43
2019-03-10T09:28:15.256Z,13.37
2019-03-10T09:29:15.747Z,13.26
2019-03-10T09:30:16.505Z,13.28
2019-03-10T09:31:17.433Z,13.27
2019-03-10T09:32:18.190Z,13.26
2019-03-10T09:33:19.019Z,13.27
2019-03-10T09:34:19.789Z,13.26
2019-03-10T09:35:20.832Z,13.21
2019-03-10T09:36:21.312Z,13.12
2019-03-10T09:37:21.795Z,13.19
2019-03-10T09:38:22.320Z,13.12
2019-03-10T09:39:23.080Z,13.11
2019-03-10T09:40:24.128Z,13.12
2019-03-10T09:41:25.209Z,13.11
2019-03-10T09:42:25.987Z,13.13
2019-03-10T09:43:26.031Z,13.02
2019-03-10T09:44:27.091Z,13.01
2019-03-10T09:45:28.004Z,12.99
2019-03-10T09:46:29.098Z,12.98
2019-03-10T09:47:30.585Z,13.01
2019-03-10T09:48:31.106Z,12.95
2019-03-10T09:49:31.956Z,13.03
2019-03-10T09:50:32.224Z,13.09
2019-03-10T09:51:33.707Z,13.09
2019-03-10T09:52:38.771Z,13.13
2019-03-10T09:52:46.261Z,13.17
2019-03-10T09:53:45.175Z,13.12
2019-03-10T09:54:45.399Z,13.12
2019-03-10T09:55:45.603Z,13.11
2019-03-10T09:56:47.195Z,13.01
2019-03-10T09:57:47.955Z,13.02
2019-03-10T09:58:48.731Z,13.02
2019-03-10T09:59:49.233Z,12.99
2019-03-10T10:00:50.828Z,13.01
2019-03-10T10:01:52.813Z,13.01
2019-03-10T10:02:53.574Z,13.01
2019-03-10T10:03:54.673Z,12.94
2019-03-10T10:04:55.738Z,12.93
2019-03-10T10:05:56.233Z,12.95
2019-03-10T10:06:57.289Z,12.88
2019-03-10T10:07:57.776Z,12.86
2019-03-10T10:08:58.554Z,12.87
2019-03-10T10:09:59.337Z,12.83
2019-03-10T10:11:01.017Z,12.83
2019-03-10T10:12:12.651Z,12.8
2019-03-10T10:12:14.515Z,12.84
2019-03-10T10:13:12.453Z,12.76
2019-03-10T10:14:13.212Z,12.69
2019-03-10T10:15:13.979Z,12.8
2019-03-10T10:16:14.483Z,12.8
2019-03-10T10:17:15.241Z,12.65
2019-03-10T10:18:15.736Z,12.55
2019-03-10T10:19:16.844Z,12.57
2019-03-10T10:20:17.884Z,12.58
2019-03-10T10:21:18.695Z,12.51
2019-03-10T10:22:19.451Z,12.47
2019-03-10T10:23:20.094Z,12.53
2019-03-10T10:24:20.576Z,12.53
2019-03-10T10:25:21.061Z,12.47
2019-03-10T10:26:25.693Z,12.47
2019-03-10T10:26:32.857Z,12.39
2019-03-10T10:27:35.784Z,12.45
2019-03-10T10:28:34.541Z,12.48
2019-03-10T10:29:35.469Z,12.39
2019-03-10T10:30:36.508Z,12.39
2019-03-10T10:31:36.729Z,12.35
2019-03-10T10:32:37.770Z,12.3
2019-03-10T10:33:38.538Z,12.28
2019-03-10T10:34:40.608Z,12.18
2019-03-10T10:35:39.640Z,12.3
2019-03-10T10:36:40.123Z,12.33
2019-03-10T10:37:40.767Z,12.23
2019-03-10T10:38:41.852Z,12.29
2019-03-10T10:39:46.162Z,12.37
2019-03-10T10:39:54.211Z,12.33
2019-03-10T10:40:53.483Z,12.36
2019-03-10T10:41:54.255Z,12.35
2019-03-10T10:42:54.731Z,12.29
2019-03-10T10:43:56.052Z,12.36
2019-03-10T10:44:56.254Z,12.43
2019-03-10T10:45:56.740Z,12.44
2019-03-10T10:46:56.942Z,12.47
2019-03-10T10:47:57.725Z,12.4
2019-03-10T10:49:02.449Z,12.37
2019-03-10T10:49:11.571Z,12.44
2019-03-10T10:49:19.600Z,12.4
2019-03-10T10:50:19.979Z,12.45
2019-03-10T10:51:19.918Z,12.5
2019-03-10T10:52:21.015Z,12.61
2019-03-10T10:53:22.912Z,12.61
2019-03-10T10:54:23.737Z,12.57
2019-03-10T10:55:24.612Z,12.55
2019-03-10T10:56:27.405Z,12.54
2019-03-10T10:56:35.510Z,12.54
2019-03-10T10:57:36.102Z,12.47
2019-03-10T10:58:36.957Z,12.5
2019-03-10T10:59:38.008Z,12.39
2019-03-10T11:00:39.044Z,12.39
2019-03-10T11:01:39.814Z,12.44
2019-03-10T11:02:40.620Z,12.44
2019-03-10T11:03:41.382Z,12.5
2019-03-10T11:04:42.153Z,12.47
2019-03-10T11:05:42.915Z,12.47
2019-03-10T11:06:43.955Z,12.57
2019-03-10T11:07:44.660Z,12.54
2019-03-10T11:08:45.140Z,12.55
2019-03-10T11:09:45.901Z,12.53
2019-03-10T11:10:46.980Z,12.57
2019-03-10T11:11:47.186Z,12.66
2019-03-10T11:12:47.671Z,12.54
2019-03-10T11:13:48.427Z,12.65
2019-03-10T11:14:49.796Z,12.62
2019-03-10T11:15:50.277Z,12.68
2019-03-10T11:16:51.598Z,12.62
2019-03-10T11:17:51.244Z,12.68
2019-03-10T11:18:52.008Z,12.68
2019-03-10T11:19:52.764Z,12.8
2019-03-10T11:20:53.524Z,12.88
2019-03-10T11:21:54.752Z,12.87
2019-03-10T11:22:58.061Z,13.09
2019-03-10T11:23:57.458Z,13.19
2019-03-10T11:24:58.507Z,13.21
2019-03-10T11:25:59.541Z,13.17
2019-03-10T11:26:59.303Z,13.21
2019-03-10T11:28:00.261Z,13.27
2019-03-10T11:29:05.125Z,13.37
2019-03-10T11:30:04.887Z,13.4
2019-03-10T11:31:05.653Z,13.58
2019-03-10T11:32:06.697Z,13.64
2019-03-10T11:33:07.801Z,13.76
2019-03-10T11:34:08.116Z,13.87
2019-03-10T11:35:08.959Z,13.94
2019-03-10T11:36:09.723Z,14
2019-03-10T11:37:10.486Z,14.2
2019-03-10T11:38:11.437Z,14.38
2019-03-10T11:39:11.656Z,14.45
2019-03-10T11:40:12.199Z,14.79
2019-03-10T11:41:12.685Z,14.97
2019-03-10T11:42:13.746Z,15.04
2019-03-10T11:43:14.234Z,15.17
2019-03-10T11:44:14.723Z,15.32
2019-03-10T11:45:15.212Z,15.51
2019-03-10T11:46:15.978Z,15.54
2019-03-10T11:47:16.469Z,15.81
2019-03-10T11:48:17.681Z,15.92
2019-03-10T11:49:18.168Z,16.1
2019-03-10T11:50:19.239Z,16.06
2019-03-10T11:51:19.629Z,16.16
2019-03-10T11:52:19.838Z,16.37
2019-03-10T11:53:21.294Z,16.43
2019-03-10T11:54:22.080Z,16.69
2019-03-10T11:55:23.469Z,16.83
2019-03-10T11:56:23.539Z,16.95
2019-03-10T11:57:23.777Z,16.97
2019-03-10T11:58:24.716Z,17.05
2019-03-10T11:59:25.485Z,17.17
2019-03-10T12:00:25.746Z,17.19
2019-03-10T12:01:26.787Z,17.39
2019-03-10T12:02:27.832Z,17.53
2019-03-10T12:03:27.623Z,17.68
2019-03-10T12:04:28.667Z,17.75
2019-03-10T12:05:29.163Z,17.8
2019-03-10T12:06:30.495Z,17.94
2019-03-10T12:07:30.987Z,17.93
2019-03-10T12:08:31.496Z,17.95
2019-03-10T12:09:32.285Z,18.02
2019-03-10T12:10:32.493Z,18
2019-03-10T12:11:32.704Z,17.84
2019-03-10T12:12:33.188Z,17.52
2019-03-10T12:13:33.430Z,17.19
2019-03-10T12:14:33.638Z,17.2
2019-03-10T12:15:34.961Z,17.17
2019-03-10T12:16:35.468Z,17.28
2019-03-10T12:17:35.967Z,17.22
2019-03-10T12:18:37.002Z,17.31
2019-03-10T12:19:37.682Z,17.42
2019-03-10T12:20:38.426Z,17.76
2019-03-10T12:21:38.680Z,17.86
2019-03-10T12:22:40.082Z,17.97
2019-03-10T12:23:40.677Z,18.24
2019-03-10T12:24:41.168Z,18.31
2019-03-10T12:25:41.927Z,18.28
2019-03-10T12:26:42.978Z,18.26
2019-03-10T12:27:44.171Z,18.46
2019-03-10T12:28:43.855Z,18.46
2019-03-10T12:29:44.629Z,18.39
2019-03-10T12:30:45.669Z,18.41
2019-03-10T12:31:45.446Z,18.08
2019-03-10T12:32:46.225Z,17.98
2019-03-10T12:33:49.998Z,17.8
2019-03-10T12:34:49.317Z,17.42
2019-03-10T12:35:49.547Z,17.17
2019-03-10T12:36:51.113Z,16.91
2019-03-10T12:37:50.877Z,16.79
2019-03-10T12:38:51.623Z,16.58
2019-03-10T12:39:52.406Z,16.54
2019-03-10T12:40:52.893Z,16.39
2019-03-10T12:41:59.834Z,16.28
2019-03-10T12:42:03.796Z,16.22
2019-03-10T12:43:04.060Z,16.12
2019-03-10T12:44:04.831Z,16.05
2019-03-10T12:45:05.320Z,15.96
2019-03-10T12:46:06.423Z,16.02
2019-03-10T12:47:11.218Z,15.91
2019-03-10T12:47:20.437Z,15.9
2019-03-10T12:47:30.617Z,15.99
2019-03-10T12:48:28.648Z,16.08
2019-03-10T12:49:29.418Z,16.22
2019-03-10T12:50:29.628Z,16.09
2019-03-10T12:51:31.229Z,16.05
2019-03-10T12:52:31.726Z,15.96
2019-03-10T12:53:32.489Z,16.06
2019-03-10T12:54:33.262Z,15.99
2019-03-10T12:55:34.088Z,15.76
2019-03-10T12:56:34.849Z,15.55
2019-03-10T12:57:35.336Z,15.39
2019-03-10T12:58:36.004Z,15.43
2019-03-10T12:59:36.515Z,15.52
2019-03-10T13:00:37.561Z,15.7
2019-03-10T13:01:39.168Z,15.62
2019-03-10T13:02:39.227Z,15.66